Flight Track Log - Related Links

Times and Time Zones

All times are in EDT time to prevent confusion due to time zone crossing. See the UAL582 flight status page for this flight to view local times or setup timezone preferences in your user account.

Time Position Orientation Groundspeed Altitude Reporting Facility
EDT Latitude Longitude Course Direction KTS MPH feet Rate Location/Type
Sat 09:55:43 PM 41.9775 -87.8514 180° South 210 242 2,600  Level Chicago Center
Sat 09:56:44 PM 41.9064 -87.8456 177° South 258 297 4,700 2,634 Climbing Chicago Center
Sat 09:57:00 PM 41.6564 -87.7563 180° South  Level Estimated
Sat 09:57:46 PM 41.8239 -87.8514 183° South 290 334 8,000  Level Chicago Center
Sat 09:58:00 PM 41.5479 -87.7066 176° South  Level Estimated
Sat 09:58:50 PM 41.7228 -87.8572 182° South 304 350 11,600  Level Chicago Center
Sat 09:59:00 PM 41.4394 -87.6570 187° South  Level Estimated
Sat 09:59:52 PM 41.6347 -87.8444 174° South 316 364 14,300  Level Chicago Center
Sat 10:00:00 PM 41.3309 -87.6075 180° South  Level Estimated
Sat 10:00:53 PM 41.5444 -87.8233 170° South 327 376 16,800  Level Chicago Center
Sat 10:01:54 PM 41.4433 -87.8006 170° South 364 419 17,400 1,073 Climbing Chicago Center
Sat 10:02:56 PM 41.3278 -87.7750 171° South 412 474 19,000 1,610 Climbing Chicago Center
Sat 10:03:57 PM 41.2081 -87.7472 170° South 430 495 20,700 1,623 Climbing Chicago Center
Sat 10:04:58 PM 41.0861 -87.7189 170° South 440 506 22,300 1,525 Climbing Chicago Center
Sat 10:05:59 PM 40.9614 -87.6903 170° South 452 520 23,800 1,366 Climbing Chicago Center
Sat 10:07:01 PM 40.8347 -87.6631 171° South 460 529 25,100 1,366 Climbing Chicago Center
Sat 10:08:02 PM 40.6817 -87.6278 170° South 467 537 26,600 1,230 Climbing Chicago Center
Sat 10:09:03 PM 40.5525 -87.5997 171° South 471 542 27,600 1,082 Climbing Chicago Center
Sat 10:10:04 PM 40.4208 -87.5700 170° South 479 551 28,800 1,268 Climbing Chicago Center
Sat 10:11:06 PM 40.2908 -87.5417 171° South 478 550 30,200 1,366 Climbing Chicago Center
Sat 10:12:07 PM 40.1556 -87.5131 171° South 473 544 31,600 1,255 Climbing Chicago Center
Sat 10:12:56 PM 40.0525 -87.4908 171° South 466 536 32,500 1,855 Climbing Indianapolis Center
Sat 10:13:57 PM 39.9289 -87.4650 171° South 458 527 35,000 1,672 Climbing Indianapolis Center
Sat 10:14:58 PM 39.8125 -87.4403 171° South 437 503 35,900 836 Climbing Indianapolis Center
Sat 10:15:59 PM 39.6953 -87.4139 170° South 430 495 36,700 545 Climbing Indianapolis Center
Sat 10:16:59 PM 39.5786 -87.3892 171° South 429 494 37,000 149 Climbing Indianapolis Center
Sat 10:18:00 PM 39.4575 -87.3631 171° South 439 505 37,000  Level Indianapolis Center
Sat 10:19:01 PM 39.3317 -87.3367 171° South 454 522 37,000  Level Indianapolis Center
Sat 10:20:02 PM 39.2067 -87.3100 171° South 456 525 37,000 -50 Level Indianapolis Center
Sat 10:21:02 PM 39.0761 -87.2828 171° South 448 516 36,900  Descending Indianapolis Center
Sat 10:22:03 PM 38.9558 -87.2564 170° South 439 505 37,000  Climbing Indianapolis Center
Sat 10:23:04 PM 38.8347 -87.2314 171° South 439 505 36,900  Descending Indianapolis Center
Sat 10:24:05 PM 38.7131 -87.2050 170° South 440 506 37,000 49 Climbing Indianapolis Center
Sat 10:25:06 PM 38.5897 -87.1800 171° South 446 513 37,000  Level Indianapolis Center
Sat 10:26:06 PM 38.4669 -87.1539 171° South 448 516 37,000 50 Level Indianapolis Center
Sat 10:27:07 PM 38.3314 -87.1242 170° South 450 518 37,100  Climbing Indianapolis Center
Sat 10:28:08 PM 38.2092 -87.0997 171° South 447 514 37,000 -49 Descending Indianapolis Center
Sat 10:29:09 PM 38.0817 -87.0744 171° South 447 514 37,000  Level Indianapolis Center
Sat 10:30:09 PM 37.9594 -87.0486 171° South 445 512 37,000  Level Indianapolis Center
Sat 10:31:10 PM 37.8358 -87.0236 171° South 448 516 37,000  Level Indianapolis Center
Sat 10:32:11 PM 37.7131 -86.9969 170° South 445 512 37,000  Level Indianapolis Center
Sat 10:33:12 PM 37.5914 -86.9733 171° South 442 509 37,000  Level Indianapolis Center
Sat 10:34:12 PM 37.4667 -86.9503 172° South 439 505 37,000  Level Indianapolis Center
Sat 10:35:13 PM 37.3458 -86.9261 171° South 436 502 37,000  Level Indianapolis Center
Sat 10:36:14 PM 37.2269 -86.9014 171° South 430 495 37,000  Level Indianapolis Center
Sat 10:37:14 PM 37.1100 -86.8775 171° South 423 487 37,000  Level Indianapolis Center
Sat 10:38:15 PM 36.9942 -86.8533 171° South 419 482 37,000  Level Indianapolis Center
Sat 10:39:16 PM 36.8781 -86.8308 171° South 420 483 37,000  Level Indianapolis Center
Sat 10:40:17 PM 36.7617 -86.8078 171° South 420 483 37,000  Level Indianapolis Center
Sat 10:41:26 PM 36.6303 -86.7811 171° South 425 489 37,000  Level Memphis Center
Sat 10:42:26 PM 36.5022 -86.7531 170° South 425 489 37,000  Level Memphis Center
Sat 10:43:26 PM 36.3847 -86.7300 171° South 430 495 37,000  Level Memphis Center
Sat 10:44:26 PM 36.2653 -86.7044 170° South 435 501 37,000  Level Memphis Center
Sat 10:45:26 PM 36.1500 -86.6839 172° South 429 494 37,000  Level Memphis Center
Sat 10:46:26 PM 36.0489 -86.6447 163° South 424 488 37,000  Level Memphis Center
Sat 10:48:21 PM 35.8244 -86.5306 158° South 441 507 37,000  Level Atlanta Center
Sat 10:49:21 PM 35.7089 -86.4736 158° South 434 499 37,000  Level Atlanta Center
Sat 10:50:21 PM 35.5994 -86.4192 158° South 434 499 37,000  Level Atlanta Center
Sat 10:51:21 PM 35.4878 -86.3650 158° South 434 499 37,000  Level Atlanta Center
Sat 10:52:21 PM 35.3739 -86.3108 159° South 434 499 37,000  Level Atlanta Center
Sat 10:53:21 PM 35.2747 -86.2622 158° South 434 499 37,000  Level Atlanta Center
Sat 10:54:21 PM 35.1569 -86.1981 156° South 434 499 37,000  Level Atlanta Center
Sat 10:55:21 PM 35.0389 -86.1469 160° South 429 494 37,000  Level Atlanta Center
Sat 10:56:21 PM 34.9250 -86.0933 159° South 434 499 37,000  Level Atlanta Center
Sat 10:57:21 PM 34.8133 -86.0322 156° South 434 499 37,000  Level Atlanta Center
Sat 10:58:21 PM 34.6953 -85.9764 159° South 441 507 37,000  Level Atlanta Center
Sat 10:59:21 PM 34.5792 -85.9208 158° South 452 520 37,000  Level Atlanta Center
Sat 11:00:21 PM 34.4633 -85.8653 158° South 452 520 37,000  Level Atlanta Center
Sat 11:01:21 PM 34.3719 -85.8206 158° South 452 520 37,000  Level Atlanta Center
Sat 11:02:21 PM 34.2475 -85.7678 161° South 442 509 37,000  Level Atlanta Center
Sat 11:03:21 PM 34.1356 -85.7153 159° South 437 503 37,000  Level Atlanta Center
Sat 11:04:21 PM 34.0236 -85.6631 159° South 437 503 37,000  Level Atlanta Center
Sat 11:05:21 PM 33.9094 -85.6083 158° South 437 503 37,000  Level Atlanta Center
Sat 11:06:21 PM 33.7850 -85.5508 159° South 432 497 37,000  Level Atlanta Center
Sat 11:07:21 PM 33.6708 -85.4989 159° South 432 497 37,000  Level Atlanta Center
Sat 11:08:21 PM 33.5567 -85.4447 158° South 437 503 37,000  Level Atlanta Center
Sat 11:09:21 PM 33.4425 -85.3906 158° South 437 503 37,000  Level Atlanta Center
Sat 11:10:21 PM 33.3219 -85.3389 160° South 449 517 37,000  Level Atlanta Center
Sat 11:11:21 PM 33.2078 -85.2853 159° South 447 514 37,000  Level Atlanta Center
Sat 11:12:21 PM 33.0914 -85.2289 158° South 447 514 37,000  Level Atlanta Center
Sat 11:13:21 PM 32.9750 -85.1778 160° South 447 514 37,000  Level Atlanta Center
Sat 11:14:21 PM 32.8542 -85.1442 167° South 447 514 37,000  Level Atlanta Center
Sat 11:15:21 PM 32.7356 -85.0958 161° South 441 507 37,000  Level Atlanta Center
Sat 11:16:21 PM 32.6128 -85.0547 164° South 441 507 37,000  Level Atlanta Center
Sat 11:17:21 PM 32.4964 -85.0142 164° South 447 514 37,000  Level Atlanta Center
Sat 11:18:21 PM 32.3775 -84.9758 165° South 447 514 37,000  Level Atlanta Center
Sat 11:19:21 PM 32.2819 -84.9431 164° South 447 514 37,000  Level Atlanta Center
Sat 11:21:16 PM 32.0428 -84.8631 164° South 453 521 37,000  Level Jacksonville Center
Sat 11:22:16 PM 31.9139 -84.8236 165° South 446 513 37,000  Level Jacksonville Center
Sat 11:23:16 PM 31.7933 -84.7844 165° South 441 507 37,000  Level Jacksonville Center
Sat 11:24:16 PM 31.6769 -84.7456 164° South 441 507 37,000  Level Jacksonville Center
Sat 11:25:15 PM 31.5586 -84.7067 164° South 441 507 37,000  Level Jacksonville Center
Sat 11:26:16 PM 31.4425 -84.6483 157° South 441 507 37,000  Level Jacksonville Center
Sat 11:27:15 PM 31.3283 -84.5853 155° Southeast 446 513 37,000  Level Jacksonville Center
Sat 11:28:15 PM 31.2164 -84.5225 154° Southeast 452 520 37,000  Level Jacksonville Center
Sat 11:29:16 PM 31.1108 -84.4650 155° Southeast 461 531 37,000  Level Jacksonville Center
Sat 11:30:16 PM 30.9989 -84.4000 154° Southeast 456 525 37,000  Level Jacksonville Center
Sat 11:31:15 PM 30.8825 -84.3353 154° Southeast 456 525 37,000  Level Jacksonville Center
Sat 11:32:15 PM 30.7686 -84.2706 154° Southeast 461 531 37,000  Level Jacksonville Center
Sat 11:33:15 PM 30.6544 -84.2111 156° South 461 531 37,000 -50 Level Jacksonville Center
Sat 11:34:15 PM 30.5444 -84.1444 152° Southeast 461 531 36,900 -50 Descending Jacksonville Center
Sat 11:35:16 PM 30.4300 -84.0850 156° South 455 524 36,900 50 Level Jacksonville Center
Sat 11:36:15 PM 30.3158 -84.0236 155° Southeast 455 524 37,000 50 Climbing Jacksonville Center
Sat 11:37:16 PM 30.2014 -83.9597 154° Southeast 455 524 37,000  Level Jacksonville Center
Sat 11:38:15 PM 30.0892 -83.8983 155° Southeast 460 529 37,000 -303 Level Jacksonville Center
Sat 11:39:15 PM 29.9728 -83.8372 156° South 460 529 36,400 -793 Descending Jacksonville Center
Sat 11:40:16 PM 29.8564 -83.7764 156° South 460 529 35,400 -950 Descending Jacksonville Center
Sat 11:41:15 PM 29.7442 -83.7106 153° Southeast 460 529 34,500 -958 Descending Jacksonville Center
Sat 11:42:15 PM 29.6297 -83.6525 156° South 460 529 33,500 -1,450 Descending Jacksonville Center
Sat 11:43:15 PM 29.5131 -83.5894 155° Southeast 460 529 31,600 -2,000 Descending Jacksonville Center
Sat 11:44:15 PM 29.3944 -83.5242 154° Southeast 460 529 29,500 -2,400 Descending Jacksonville Center
Sat 11:45:15 PM 29.2611 -83.4519 155° Southeast 477 549 26,800 -2,000 Descending Jacksonville Center
Sat 11:46:15 PM 29.1508 -83.3919 155° Southeast 465 535 25,500 -1,200 Descending Jacksonville Center
Sat 11:47:15 PM 29.0528 -83.3392 155° Southeast 426 490 24,400 -1,500 Descending Jacksonville Center
Sat 11:48:15 PM 28.9569 -83.2889 155° Southeast 394 453 22,500 -1,950 Descending Jacksonville Center
Sat 11:49:15 PM 28.8653 -83.2386 154° Southeast 375 432 20,500 -1,750 Descending Jacksonville Center
Sat 11:50:15 PM 28.7756 -83.1933 156° South 365 420 19,000 -1,550 Descending Jacksonville Center
Sat 11:51:15 PM 28.6881 -83.1481 156° South 358 412 17,400 -1,444 Descending Jacksonville Center
Sat 11:52:28 PM 28.5833 -83.1000 158° South 339 390 15,800 -1,353 Descending Tampa TRACON
Sat 11:53:28 PM 28.5000 -83.0500 152° Southeast 333 383 14,400 -1,450 Descending Tampa TRACON
Sat 11:54:28 PM 28.4167 -83.0000 152° Southeast 328 377 12,900 -1,421 Descending Tampa TRACON
Sat 11:55:22 PM 28.3500 -82.9667 156° South 322 371 11,700 -1,421 Descending Tampa TRACON
Sat 11:56:22 PM 28.2833 -82.9000 139° Southeast 312 359 10,200 -1,500 Descending Tampa TRACON
Sat 11:57:22 PM 28.2833 -82.8167 90° East 306 352 8,700 -1,526 Descending Tampa TRACON
Sat 11:58:16 PM 28.2667 -82.7333 103° East 294 338 7,300 -1,450 Descending Tampa TRACON
Sat 11:59:22 PM 28.2333 -82.6333 111° Southeast 288 331 5,800 -1,476 Descending Tampa TRACON
Sun 12:00:22 AM 28.2000 -82.5667 120° Southeast 256 295 4,200 -1,400 Descending Tampa TRACON
Sun 12:01:22 AM 28.1500 -82.5333 150° Southeast 214 246 3,000 -1,000 Descending Tampa TRACON
Sun 12:02:16 AM 28.1000 -82.5333 180° South 176 203 2,300 -789 Descending Tampa TRACON
Sun 12:03:16 AM 28.0667 -82.5333 180° South 147 169 1,500 -800 Descending Tampa TRACON

Login

Don't have an account? Register now (free) for customized features, flight alerts, and more!